Time;durP1;ratioP1;P1;durP2;ratioP2;P2;SDS_P1;SDS_P2;PMS_P1;PMS_P2;Temp;Humidity;BMP_temperature;BMP_pressure;BME280_temperature;BME280_humidity;BME280_pressure;Samples;Min_cycle;Max_cycle;Signal;HPM_P1;HPM_P2
2022/09/19 00:01:17;;;;;;;;;;;12.70;99.90;;;;;;5052119;28;20396;-72
2022/09/19 00:03:45;;;;;;;;;;;12.70;99.90;;;;;;5044928;28;19927;-73
2022/09/19 00:06:21;;;;;;;;;;;12.80;99.90;;;;;;5052390;28;20045;-72
2022/09/19 00:08:47;;;;;;;;;;;12.80;99.90;;;;;;5023203;28;19921;-73
2022/09/19 00:11:14;;;;;;;;;;;12.80;99.90;;;;;;5048326;28;19928;-73
2022/09/19 00:13:44;;;;;;;;;;;12.90;99.90;;;;;;5025809;28;19967;-73
2022/09/19 00:16:10;;;;;;;;;;;12.90;99.90;;;;;;5018345;28;19925;-73
2022/09/19 00:18:38;;;;;;;;;;;13.00;99.90;;;;;;5047009;28;19927;-72
2022/09/19 00:21:04;;;;;;;;;;;13.10;99.90;;;;;;5051821;28;19917;-74
2022/09/19 00:26:17;;;;;;;;;;;13.40;99.90;;;;;;5046382;28;19921;-73
2022/09/19 00:28:44;;;;;;;;;;;13.20;99.90;;;;;;5043877;28;20015;-73
2022/09/19 00:31:17;;;;;;;;;;;13.20;99.90;;;;;;5042482;28;19917;-73
2022/09/19 00:33:44;;;;;;;;;;;13.20;99.90;;;;;;5035492;28;19943;-73
2022/09/19 00:36:10;;;;;;;;;;;13.10;99.90;;;;;;5020174;28;19921;-73
2022/09/19 00:38:36;;;;;;;;;;;13.10;99.90;;;;;;5035286;28;19971;-73
2022/09/19 00:41:01;;;;;;;;;;;13.10;99.90;;;;;;5040049;28;19929;-73
2022/09/19 00:43:43;;;;;;;;;;;13.00;99.90;;;;;;5042786;28;20296;-73
2022/09/19 00:46:08;;;;;;;;;;;13.00;99.90;;;;;;5035187;28;19968;-73
2022/09/19 00:48:34;;;;;;;;;;;13.00;99.90;;;;;;5034087;28;19921;-74
2022/09/19 00:51:02;;;;;;;;;;;13.10;99.90;;;;;;5033973;28;20003;-73
2022/09/19 00:53:30;;;;;;;;;;;13.20;99.90;;;;;;5029603;28;19921;-73
2022/09/19 00:55:56;;;;;;;;;;;13.20;99.90;;;;;;5043209;28;19920;-74
2022/09/19 00:58:21;;;;;;;;;;;13.20;99.90;;;;;;5040070;28;19947;-73
2022/09/19 01:00:47;;;;;;;;;;;13.20;99.90;;;;;;5032256;28;20389;-73
2022/09/19 01:03:12;;;;;;;;;;;13.30;99.90;;;;;;5041803;28;20008;-73
2022/09/19 01:05:55;;;;;;;;;;;13.20;99.90;;;;;;5039780;28;19961;-73
2022/09/19 01:08:36;;;;;;;;;;;13.20;99.90;;;;;;5030894;28;19956;-73
2022/09/19 01:11:13;;;;;;;;;;;13.20;99.90;;;;;;5031017;28;19933;-73
2022/09/19 01:13:43;;;;;;;;;;;13.20;99.90;;;;;;5012440;28;20365;-72
2022/09/19 01:16:10;;;;;;;;;;;13.20;99.90;;;;;;5033499;28;19975;-73
2022/09/19 01:18:45;;;;;;;;;;;13.30;99.90;;;;;;5047267;28;20377;-73
2022/09/19 01:21:39;;;;;;;;;;;13.30;99.90;;;;;;5041213;28;19925;-73
2022/09/19 01:24:19;;;;;;;;;;;13.40;99.90;;;;;;5035335;28;20292;-73
2022/09/19 01:26:51;;;;;;;;;;;13.40;99.90;;;;;;5040184;28;20246;-73
2022/09/19 01:29:20;;;;;;;;;;;13.40;99.90;;;;;;5051082;28;19928;-73
2022/09/19 01:31:48;;;;;;;;;;;13.40;99.90;;;;;;5041704;28;19920;-74
2022/09/19 01:34:17;;;;;;;;;;;13.50;99.90;;;;;;5050219;28;20411;-74
2022/09/19 01:37:03;;;;;;;;;;;13.50;99.90;;;;;;5041642;28;19921;-71
2022/09/19 01:39:30;;;;;;;;;;;13.50;99.90;;;;;;5038181;28;19920;-72
2022/09/19 01:41:58;;;;;;;;;;;13.50;99.90;;;;;;5041068;28;19931;-72
2022/09/19 01:44:24;;;;;;;;;;;13.60;99.90;;;;;;5037678;28;19921;-72
2022/09/19 01:47:08;;;;;;;;;;;13.40;99.90;;;;;;5041333;28;19946;-72
2022/09/19 01:49:37;;;;;;;;;;;13.40;99.90;;;;;;5037863;28;19924;-71
2022/09/19 01:52:10;;;;;;;;;;;13.40;99.90;;;;;;5045244;28;20427;-71
2022/09/19 01:54:55;;;;;;;;;;;13.30;99.90;;;;;;5043878;28;19970;-73
2022/09/19 01:57:32;;;;;;;;;;;13.20;99.90;;;;;;5050153;28;19925;-73
2022/09/19 01:59:58;;;;;;;;;;;13.20;99.90;;;;;;5042120;28;19928;-73
2022/09/19 02:02:33;;;;;;;;;;;13.10;99.90;;;;;;5041921;28;19921;-73
2022/09/19 02:05:11;;;;;;;;;;;13.10;99.90;;;;;;5041507;28;19974;-73
2022/09/19 02:07:59;;;;;;;;;;;13.00;99.90;;;;;;5044909;28;20262;-73
2022/09/19 02:10:39;;;;;;;;;;;13.00;99.90;;;;;;5050186;28;19928;-73
2022/09/19 02:13:08;;;;;;;;;;;13.00;99.90;;;;;;5044812;28;19966;-73
2022/09/19 02:15:34;;;;;;;;;;;13.10;99.90;;;;;;5044257;28;19920;-73
2022/09/19 02:18:07;;;;;;;;;;;12.90;99.90;;;;;;5053728;28;19959;-71
2022/09/19 02:20:33;;;;;;;;;;;13.00;99.90;;;;;;5053672;28;20012;-72
2022/09/19 02:23:04;;;;;;;;;;;13.00;99.90;;;;;;5053465;28;20623;-74
2022/09/19 02:25:33;;;;;;;;;;;12.90;99.90;;;;;;5043880;28;19921;-73
2022/09/19 02:28:10;;;;;;;;;;;13.00;99.90;;;;;;5044581;28;19920;-73
2022/09/19 02:30:36;;;;;;;;;;;13.00;99.90;;;;;;5053017;28;19921;-73
2022/09/19 02:33:06;;;;;;;;;;;13.10;99.90;;;;;;5053951;28;20035;-73
2022/09/19 02:35:41;;;;;;;;;;;13.10;99.90;;;;;;5043890;28;20408;-73
2022/09/19 02:38:22;;;;;;;;;;;13.10;99.90;;;;;;5042891;28;19921;-73
2022/09/19 02:40:53;;;;;;;;;;;13.10;99.90;;;;;;5040578;28;19971;-73
2022/09/19 02:43:35;;;;;;;;;;;13.10;99.90;;;;;;5053448;28;20308;-71
2022/09/19 02:46:04;;;;;;;;;;;13.20;99.90;;;;;;5044144;28;19920;-71
2022/09/19 02:48:36;;;;;;;;;;;13.20;99.90;;;;;;5041059;28;20051;-71
2022/09/19 02:51:01;;;;;;;;;;;13.20;99.90;;;;;;5037399;28;19925;-73
2022/09/19 02:53:30;;;;;;;;;;;13.10;99.90;;;;;;5038490;28;19927;-73
2022/09/19 02:56:01;;;;;;;;;;;13.10;99.90;;;;;;5053201;28;19924;-74
2022/09/19 02:58:29;;;;;;;;;;;13.00;99.90;;;;;;5052522;28;19916;-72
2022/09/19 03:00:59;;;;;;;;;;;13.00;99.90;;;;;;5052370;28;19928;-72
2022/09/19 03:06:26;;;;;;;;;;;12.90;99.90;;;;;;5032772;28;20011;-73
2022/09/19 03:08:53;;;;;;;;;;;13.00;99.90;;;;;;5053276;28;19920;-72
2022/09/19 03:11:19;;;;;;;;;;;13.00;99.90;;;;;;5052939;28;19921;-72
2022/09/19 03:13:45;;;;;;;;;;;12.90;99.90;;;;;;5061657;28;20037;-72
2022/09/19 03:16:23;;;;;;;;;;;13.00;99.90;;;;;;5060629;28;19986;-73
2022/09/19 03:18:55;;;;;;;;;;;13.00;99.90;;;;;;5044543;28;19924;-72
2022/09/19 03:21:22;;;;;;;;;;;13.00;99.90;;;;;;5044641;28;20375;-73
2022/09/19 03:23:49;;;;;;;;;;;13.00;99.90;;;;;;5044688;28;20369;-72
2022/09/19 03:26:18;;;;;;;;;;;13.00;99.90;;;;;;5063520;28;20007;-72
2022/09/19 03:28:43;;;;;;;;;;;13.00;99.90;;;;;;5062268;28;19957;-73
2022/09/19 03:31:12;;;;;;;;;;;13.00;99.90;;;;;;5046518;28;19920;-75
2022/09/19 03:33:40;;;;;;;;;;;13.00;99.90;;;;;;5042572;28;19921;-77
2022/09/19 03:36:07;;;;;;;;;;;12.90;99.90;;;;;;5064551;28;20257;-76
2022/09/19 03:38:34;;;;;;;;;;;12.90;99.90;;;;;;5038694;28;20376;-75
2022/09/19 03:40:59;;;;;;;;;;;12.90;99.90;;;;;;5063356;28;19920;-76
2022/09/19 03:43:25;;;;;;;;;;;12.80;99.90;;;;;;5061727;28;19927;-75
2022/09/19 03:45:51;;;;;;;;;;;12.80;99.90;;;;;;5043748;28;19920;-76
2022/09/19 03:48:16;;;;;;;;;;;12.80;99.90;;;;;;5059755;28;19943;-76
2022/09/19 03:50:42;;;;;;;;;;;12.80;99.90;;;;;;5044327;28;20288;-76
2022/09/19 03:53:09;;;;;;;;;;;12.80;99.90;;;;;;5063990;28;20287;-76
2022/09/19 03:55:37;;;;;;;;;;;12.80;99.90;;;;;;5059786;28;19921;-77
2022/09/19 03:58:04;;;;;;;;;;;12.80;99.90;;;;;;5046568;28;19964;-76
2022/09/19 04:00:30;;;;;;;;;;;12.70;99.90;;;;;;5056142;28;19921;-77
2022/09/19 04:02:56;;;;;;;;;;;12.70;99.90;;;;;;5040531;28;19920;-76
2022/09/19 04:05:22;;;;;;;;;;;12.70;99.90;;;;;;5043133;28;19947;-75
2022/09/19 04:07:48;;;;;;;;;;;12.70;99.90;;;;;;5044819;28;20371;-76
2022/09/19 04:10:16;;;;;;;;;;;12.80;99.90;;;;;;5043962;28;20364;-75
2022/09/19 04:12:41;;;;;;;;;;;12.90;99.90;;;;;;5061105;28;19972;-76
2022/09/19 04:15:07;;;;;;;;;;;12.90;99.90;;;;;;5044996;28;19921;-76
2022/09/19 04:17:33;;;;;;;;;;;13.00;99.90;;;;;;5038265;28;19920;-76
2022/09/19 04:19:59;;;;;;;;;;;13.00;99.90;;;;;;5064195;28;19924;-76
2022/09/19 04:22:24;;;;;;;;;;;13.00;99.90;;;;;;5058945;28;19920;-77
2022/09/19 04:24:51;;;;;;;;;;;13.00;99.90;;;;;;5063537;28;19929;-76
2022/09/19 04:27:19;;;;;;;;;;;13.00;99.90;;;;;;5061339;28;19916;-76
2022/09/19 04:29:48;;;;;;;;;;;12.90;99.90;;;;;;5042926;28;19929;-76
2022/09/19 04:32:16;;;;;;;;;;;12.90;99.90;;;;;;5059756;28;19927;-75
2022/09/19 04:34:43;;;;;;;;;;;12.90;99.90;;;;;;5061897;28;19924;-76
2022/09/19 04:37:09;;;;;;;;;;;12.80;99.90;;;;;;5043125;28;19967;-76
2022/09/19 04:39:41;;;;;;;;;;;12.70;99.90;;;;;;5044505;28;19920;-76
2022/09/19 04:42:06;;;;;;;;;;;13.60;99.90;;;;;;5043506;28;20399;-75
2022/09/19 04:44:32;;;;;;;;;;;12.70;99.90;;;;;;5044370;28;19921;-75
2022/09/19 04:46:58;;;;;;;;;;;12.70;99.90;;;;;;5056271;28;19917;-75
2022/09/19 04:49:30;;;;;;;;;;;12.60;99.90;;;;;;5059716;28;20474;-76
2022/09/19 04:51:58;;;;;;;;;;;12.60;99.90;;;;;;5038403;28;19921;-76
2022/09/19 04:54:23;;;;;;;;;;;12.70;99.90;;;;;;5059910;28;19928;-76
2022/09/19 04:56:49;;;;;;;;;;;12.70;99.90;;;;;;5045529;28;19931;-77
2022/09/19 04:59:14;;;;;;;;;;;12.60;99.90;;;;;;5060043;28;19936;-75
2022/09/19 05:01:40;;;;;;;;;;;12.60;99.90;;;;;;5061688;28;20330;-79
2022/09/19 05:04:06;;;;;;;;;;;12.60;99.90;;;;;;5042478;28;20371;-77
2022/09/19 05:06:31;;;;;;;;;;;12.60;99.90;;;;;;5045834;28;19924;-79
2022/09/19 05:09:00;;;;;;;;;;;12.50;99.90;;;;;;5044302;28;19916;-76
2022/09/19 05:11:27;;;;;;;;;;;12.50;99.90;;;;;;5059161;28;20296;-76
2022/09/19 05:13:52;;;;;;;;;;;12.40;99.90;;;;;;5045482;28;19932;-76
2022/09/19 05:16:21;;;;;;;;;;;12.40;99.90;;;;;;5059400;28;19921;-75
2022/09/19 05:18:46;;;;;;;;;;;12.40;99.90;;;;;;5055749;28;19928;-77
2022/09/19 05:21:13;;;;;;;;;;;12.40;99.90;;;;;;5044914;28;19916;-72
2022/09/19 05:23:39;;;;;;;;;;;12.40;99.90;;;;;;5063000;28;19927;-79
2022/09/19 05:26:06;;;;;;;;;;;12.60;99.90;;;;;;5047419;28;19925;-77
2022/09/19 05:28:31;;;;;;;;;;;12.50;99.90;;;;;;5047605;28;20272;-76
2022/09/19 05:30:57;;;;;;;;;;;12.60;99.90;;;;;;5045527;28;19925;-72
2022/09/19 05:33:26;;;;;;;;;;;12.70;99.90;;;;;;5044683;28;19920;-74
2022/09/19 05:35:55;;;;;;;;;;;12.70;99.90;;;;;;5064056;28;20320;-71
2022/09/19 05:38:26;;;;;;;;;;;12.70;99.90;;;;;;5066306;28;20366;-72
2022/09/19 05:40:52;;;;;;;;;;;12.70;99.90;;;;;;5045693;28;19925;-72
2022/09/19 05:43:18;;;;;;;;;;;12.70;99.90;;;;;;5046589;28;19920;-71
2022/09/19 05:45:44;;;;;;;;;;;12.70;99.90;;;;;;5041492;28;19960;-71
2022/09/19 05:48:09;;;;;;;;;;;12.80;99.90;;;;;;5059198;28;19986;-76
2022/09/19 05:50:35;;;;;;;;;;;12.80;99.90;;;;;;5048032;28;19974;-73
2022/09/19 05:55:47;;;;;;;;;;;12.80;99.90;;;;;;5058715;28;20015;-78
2022/09/19 05:58:16;;;;;;;;;;;12.90;99.90;;;;;;5063777;28;19925;-82
2022/09/19 06:00:42;;;;;;;;;;;12.90;99.90;;;;;;5039377;28;20399;-78
2022/09/19 06:03:10;;;;;;;;;;;13.00;99.90;;;;;;5047513;28;19978;-73
2022/09/19 06:05:40;;;;;;;;;;;13.00;99.90;;;;;;5065424;28;19997;-74
2022/09/19 06:08:09;;;;;;;;;;;13.10;99.90;;;;;;5042462;28;20357;-74
2022/09/19 06:10:39;;;;;;;;;;;13.10;99.90;;;;;;5051492;28;19921;-76
2022/09/19 06:13:05;;;;;;;;;;;13.00;99.90;;;;;;5066226;28;19927;-76
2022/09/19 06:15:31;;;;;;;;;;;13.10;99.90;;;;;;5052730;28;19920;-77
2022/09/19 06:17:57;;;;;;;;;;;13.10;99.90;;;;;;5052755;28;19927;-78
2022/09/19 06:20:26;;;;;;;;;;;13.10;99.90;;;;;;5049447;28;20149;-78
2022/09/19 06:23:00;;;;;;;;;;;13.10;99.90;;;;;;5050715;28;19924;-78
2022/09/19 06:25:29;;;;;;;;;;;13.10;99.90;;;;;;5052824;28;19920;-79
2022/09/19 06:27:56;;;;;;;;;;;13.00;99.90;;;;;;5074232;28;20013;-84
2022/09/19 06:30:22;;;;;;;;;;;13.00;99.90;;;;;;5048235;28;19975;-84
2022/09/19 06:32:49;;;;;;;;;;;13.00;99.90;;;;;;5053163;28;19925;-81
2022/09/19 06:35:20;;;;;;;;;;;13.00;99.90;;;;;;5046029;28;19975;-83
2022/09/19 06:37:47;;;;;;;;;;;12.90;99.90;;;;;;5046770;28;19970;-80
2022/09/19 06:40:22;;;;;;;;;;;12.90;99.90;;;;;;5063233;28;20042;-80
2022/09/19 06:42:48;;;;;;;;;;;12.90;99.90;;;;;;5062961;28;19974;-80
2022/09/19 06:45:14;;;;;;;;;;;12.90;99.90;;;;;;5063563;28;20672;-82
2022/09/19 06:47:39;;;;;;;;;;;12.80;99.90;;;;;;5061833;28;19921;-79
2022/09/19 06:50:05;;;;;;;;;;;12.80;99.90;;;;;;5047497;28;19921;-76
2022/09/19 06:52:31;;;;;;;;;;;12.90;99.90;;;;;;5057621;28;19928;-75
2022/09/19 06:54:58;;;;;;;;;;;13.00;99.90;;;;;;5047390;28;20024;-80
2022/09/19 06:57:23;;;;;;;;;;;13.00;99.90;;;;;;5043353;28;19928;-79
2022/09/19 06:59:49;;;;;;;;;;;13.10;99.90;;;;;;5046128;28;19920;-76
2022/09/19 07:02:14;;;;;;;;;;;13.20;99.90;;;;;;5045738;28;19935;-79
2022/09/19 07:04:40;;;;;;;;;;;13.20;99.90;;;;;;5044158;28;19921;-79
2022/09/19 07:07:05;;;;;;;;;;;13.30;99.90;;;;;;5046964;28;19920;-77
2022/09/19 07:09:31;;;;;;;;;;;13.50;99.90;;;;;;5043457;28;19944;-77
2022/09/19 07:11:57;;;;;;;;;;;13.50;99.90;;;;;;5053482;28;19943;-78
2022/09/19 07:14:23;;;;;;;;;;;13.60;99.90;;;;;;5043309;28;19920;-77
2022/09/19 07:16:49;;;;;;;;;;;13.70;99.90;;;;;;5063873;28;19936;-78
2022/09/19 07:19:15;;;;;;;;;;;13.80;99.90;;;;;;5044511;28;19920;-77
2022/09/19 07:21:41;;;;;;;;;;;13.90;99.90;;;;;;5062552;28;19943;-76
2022/09/19 07:24:07;;;;;;;;;;;14.00;99.90;;;;;;5063827;28;20006;-78
2022/09/19 07:26:32;;;;;;;;;;;14.00;99.90;;;;;;5059949;28;19936;-77
2022/09/19 07:28:58;;;;;;;;;;;14.20;99.90;;;;;;5061000;28;19920;-78
2022/09/19 07:31:23;;;;;;;;;;;15.10;99.90;;;;;;5064482;28;20299;-79
2022/09/19 07:33:49;;;;;;;;;;;16.40;99.90;;;;;;5061177;28;19920;-78
2022/09/19 07:36:15;;;;;;;;;;;17.50;99.70;;;;;;5045865;28;19920;-77
2022/09/19 07:38:40;;;;;;;;;;;18.70;98.80;;;;;;5064335;28;20287;-78
2022/09/19 07:41:06;;;;;;;;;;;19.70;97.60;;;;;;5062370;28;20350;-78
2022/09/19 07:43:32;;;;;;;;;;;20.30;97.20;;;;;;5060564;28;19977;-79
2022/09/19 07:46:00;;;;;;;;;;;20.90;93.80;;;;;;5045901;28;19963;-79
2022/09/19 07:48:25;;;;;;;;;;;21.80;93.20;;;;;;5042019;28;20321;-79
2022/09/19 07:50:51;;;;;;;;;;;21.70;93.70;;;;;;5046309;28;20019;-79
2022/09/19 07:53:17;;;;;;;;;;;22.40;92.20;;;;;;5060276;28;20284;-79
2022/09/19 07:55:51;;;;;;;;;;;22.50;92.80;;;;;;5045307;28;19921;-80
2022/09/19 07:58:17;;;;;;;;;;;22.90;91.80;;;;;;5042317;28;20003;-80
2022/09/19 08:00:45;;;;;;;;;;;23.50;90.90;;;;;;5060739;28;20019;-80
2022/09/19 08:03:11;;;;;;;;;;;23.90;90.90;;;;;;5045226;28;19927;-80
2022/09/19 08:05:39;;;;;;;;;;;23.60;89.00;;;;;;5044339;28;20258;-79
2022/09/19 08:08:05;;;;;;;;;;;24.00;89.80;;;;;;5061672;28;19931;-80
2022/09/19 08:10:31;;;;;;;;;;;24.40;90.40;;;;;;5044286;28;19927;-79
2022/09/19 08:13:00;;;;;;;;;;;24.50;88.40;;;;;;5037143;28;19921;-78
2022/09/19 08:15:30;;;;;;;;;;;24.80;89.20;;;;;;5022239;28;19921;-80
2022/09/19 08:17:57;;;;;;;;;;;24.80;88.30;;;;;;5004221;28;20024;-79
2022/09/19 08:20:22;;;;;;;;;;;24.30;87.70;;;;;;5002173;28;19989;-79
2022/09/19 08:22:48;;;;;;;;;;;24.40;86.80;;;;;;5005972;28;19925;-79
2022/09/19 08:25:15;;;;;;;;;;;24.70;86.70;;;;;;5003963;28;19960;-80
2022/09/19 08:27:43;;;;;;;;;;;24.50;87.40;;;;;;5025528;28;20419;-80
2022/09/19 08:30:09;;;;;;;;;;;24.80;86.80;;;;;;4999803;28;20012;-80
2022/09/19 08:32:34;;;;;;;;;;;25.40;87.00;;;;;;5022760;28;20012;-80
2022/09/19 08:35:00;;;;;;;;;;;25.50;86.80;;;;;;5022808;28;19925;-80
2022/09/19 08:37:25;;;;;;;;;;;25.70;84.60;;;;;;5020702;28;19975;-79
2022/09/19 08:42:47;;;;;;;;;;;24.80;88.80;;;;;;5002366;28;19921;-80
2022/09/19 08:45:30;;;;;;;;;;;23.70;89.80;;;;;;4998645;28;19921;-80
2022/09/19 08:47:56;;;;;;;;;;;21.80;90.90;;;;;;5009410;28;19928;-79
2022/09/19 08:50:25;;;;;;;;;;;20.30;92.40;;;;;;5002863;28;19918;-79
2022/09/19 08:53:01;;;;;;;;;;;19.10;93.30;;;;;;5023425;28;19983;-79
2022/09/19 08:55:32;;;;;;;;;;;18.10;94.00;;;;;;5021363;28;19964;-79
2022/09/19 08:57:59;;;;;;;;;;;17.70;96.80;;;;;;5005266;28;20000;-78
2022/09/19 09:00:26;;;;;;;;;;;17.30;97.40;;;;;;5008692;28;19925;-79
2022/09/19 09:02:51;;;;;;;;;;;17.10;98.60;;;;;;5031472;28;19921;-79
2022/09/19 09:05:29;;;;;;;;;;;16.90;99.00;;;;;;5006347;28;20008;-78
2022/09/19 09:08:10;;;;;;;;;;;16.80;99.90;;;;;;5008701;28;19925;-78
2022/09/19 09:10:35;;;;;;;;;;;16.60;99.90;;;;;;5011405;28;19922;-78
2022/09/19 09:13:19;;;;;;;;;;;16.50;99.90;;;;;;5042296;28;20002;-79
2022/09/19 09:16:04;;;;;;;;;;;16.50;99.90;;;;;;5044580;28;20376;-78
2022/09/19 09:18:48;;;;;;;;;;;16.70;99.90;;;;;;5054576;28;19920;-77
2022/09/19 09:21:46;;;;;;;;;;;18.10;99.90;;;;;;5052634;28;19921;-78
2022/09/19 09:24:34;;;;;;;;;;;19.80;99.90;;;;;;4995003;28;20357;-78
2022/09/19 09:27:02;;;;;;;;;;;21.30;98.70;;;;;;5041204;28;20386;-79
2022/09/19 09:29:42;;;;;;;;;;;21.20;96.80;;;;;;5054945;28;19921;-79
2022/09/19 09:32:14;;;;;;;;;;;20.70;98.30;;;;;;5041655;28;20317;-79
2022/09/19 09:34:43;;;;;;;;;;;20.00;98.30;;;;;;5048079;28;19966;-79
2022/09/19 09:37:23;;;;;;;;;;;19.60;97.80;;;;;;5055421;28;20284;-79
2022/09/19 09:40:01;;;;;;;;;;;19.40;97.90;;;;;;5054749;28;19920;-78
2022/09/19 09:42:30;;;;;;;;;;;20.20;97.10;;;;;;5055197;28;19956;-79
2022/09/19 09:45:14;;;;;;;;;;;20.30;94.80;;;;;;5052648;28;19943;-78
2022/09/19 09:48:01;;;;;;;;;;;20.10;95.40;;;;;;5069829;28;19932;-78
2022/09/19 09:50:48;;;;;;;;;;;19.90;94.80;;;;;;5040843;28;19963;-78
2022/09/19 09:53:43;;;;;;;;;;;20.80;95.00;;;;;;5029199;28;20068;-78
2022/09/19 09:56:14;;;;;;;;;;;21.30;92.70;;;;;;5044325;28;20356;-79
2022/09/19 09:58:46;;;;;;;;;;;22.20;94.50;;;;;;5054856;28;20368;-79
2022/09/19 10:04:11;;;;;;;;;;;21.90;91.00;;;;;;5039543;28;19921;-79
2022/09/19 10:06:56;;;;;;;;;;;21.10;92.00;;;;;;5042669;28;19924;-79
2022/09/19 10:09:33;;;;;;;;;;;20.90;92.90;;;;;;5053281;28;20062;-79
2022/09/19 10:12:06;;;;;;;;;;;19.50;93.60;;;;;;5038048;28;19960;-78
2022/09/19 10:14:36;;;;;;;;;;;19.00;94.80;;;;;;5029241;28;19928;-78
2022/09/19 10:17:03;;;;;;;;;;;18.40;96.40;;;;;;5035082;28;20020;-77
2022/09/19 10:19:35;;;;;;;;;;;18.20;96.80;;;;;;5034411;28;20176;-76
2022/09/19 10:22:00;;;;;;;;;;;17.90;97.80;;;;;;5032624;28;20011;-77
2022/09/19 10:24:41;;;;;;;;;;;17.40;98.70;;;;;;5033467;28;20018;-77
2022/09/19 10:27:14;;;;;;;;;;;17.00;99.80;;;;;;5032540;28;19928;-77
2022/09/19 10:29:47;;;;;;;;;;;16.70;99.90;;;;;;5032941;28;19928;-78
2022/09/19 10:32:23;;;;;;;;;;;16.40;99.90;;;;;;5032934;28;20019;-77
2022/09/19 10:34:50;;;;;;;;;;;16.20;99.90;;;;;;5034764;28;19929;-77
2022/09/19 10:37:18;;;;;;;;;;;15.90;99.90;;;;;;5033414;28;19966;-80
2022/09/19 10:39:48;;;;;;;;;;;16.20;99.90;;;;;;5033662;28;20388;-80
2022/09/19 10:42:24;;;;;;;;;;;15.40;99.90;;;;;;5032874;28;19920;-82
2022/09/19 10:44:52;;;;;;;;;;;15.20;99.90;;;;;;5034963;28;19925;-82
2022/09/19 10:47:18;;;;;;;;;;;15.10;99.90;;;;;;5033935;28;19974;-81
2022/09/19 10:49:45;;;;;;;;;;;14.90;99.90;;;;;;5033719;28;19980;-81
2022/09/19 10:52:13;;;;;;;;;;;14.80;99.90;;;;;;5034807;28;19920;-81
2022/09/19 10:54:41;;;;;;;;;;;14.70;99.90;;;;;;5032655;28;19921;-80
2022/09/19 10:57:45;;;;;;;;;;;14.70;99.90;;;;;;5033526;28;19928;-80
2022/09/19 11:00:24;;;;;;;;;;;14.70;99.90;;;;;;4973169;28;20406;-79
2022/09/19 11:02:54;;;;;;;;;;;14.90;99.90;;;;;;4953150;28;19969;-78
2022/09/19 11:05:24;;;;;;;;;;;15.10;99.90;;;;;;5007833;28;19920;-85
2022/09/19 11:07:54;;;;;;;;;;;15.30;99.90;;;;;;5031651;28;20016;-90
2022/09/19 11:10:37;;;;;;;;;;;15.60;99.90;;;;;;5031336;28;19917;-77
2022/09/19 11:13:07;;;;;;;;;;;15.90;99.90;;;;;;5044004;28;19967;-83
2022/09/19 11:15:41;;;;;;;;;;;16.00;99.90;;;;;;5053929;28;19947;-82
2022/09/19 11:18:16;;;;;;;;;;;16.30;99.90;;;;;;5038978;28;19921;-81
2022/09/19 11:20:57;;;;;;;;;;;16.40;99.90;;;;;;5054427;28;20396;-83
2022/09/19 11:23:28;;;;;;;;;;;16.50;99.90;;;;;;5053507;28;19932;-79
2022/09/19 11:25:58;;;;;;;;;;;16.30;99.90;;;;;;5043366;28;20361;-78
2022/09/19 11:28:24;;;;;;;;;;;16.30;99.90;;;;;;5053525;28;19928;-78
2022/09/19 11:30:55;;;;;;;;;;;16.30;99.90;;;;;;5054322;28;19950;-83
2022/09/19 11:33:26;;;;;;;;;;;16.10;99.90;;;;;;5052465;28;20007;-82
2022/09/19 11:35:54;;;;;;;;;;;15.90;99.90;;;;;;5054407;28;19924;-83
2022/09/19 11:38:29;;;;;;;;;;;15.80;99.90;;;;;;5042969;28;19920;-78
2022/09/19 11:40:57;;;;;;;;;;;15.60;99.90;;;;;;5044030;28;20015;-78
2022/09/19 11:43:44;;;;;;;;;;;16.10;99.90;;;;;;5043256;28;19944;-76
2022/09/19 11:46:15;;;;;;;;;;;17.20;99.90;;;;;;5053007;28;20009;-76
2022/09/19 11:48:54;;;;;;;;;;;18.10;99.90;;;;;;5052913;28;19920;-80
2022/09/19 11:51:29;;;;;;;;;;;19.00;99.90;;;;;;5040311;28;20450;-83
2022/09/19 11:53:57;;;;;;;;;;;19.60;99.90;;;;;;5045055;28;19942;-83
2022/09/19 11:56:36;;;;;;;;;;;19.90;99.90;;;;;;5053353;28;19921;-80
2022/09/19 11:59:22;;;;;;;;;;;20.10;99.70;;;;;;5053507;28;19946;-79
2022/09/19 12:01:48;;;;;;;;;;;20.40;98.40;;;;;;5039728;28;19928;-85
2022/09/19 12:04:26;;;;;;;;;;;20.40;95.40;;;;;;5039810;28;20321;-79
2022/09/19 12:06:55;;;;;;;;;;;20.80;95.90;;;;;;5036051;28;20410;-81
2022/09/19 12:09:28;;;;;;;;;;;21.70;96.20;;;;;;5052753;28;19999;-75
2022/09/19 12:11:55;;;;;;;;;;;22.00;94.60;;;;;;5046594;28;19927;-75
2022/09/19 12:14:41;;;;;;;;;;;21.90;95.00;;;;;;5058168;28;20372;-75
2022/09/19 12:17:19;;;;;;;;;;;21.60;94.00;;;;;;5047985;28;19964;-76
2022/09/19 12:19:52;;;;;;;;;;;21.70;92.60;;;;;;5071268;28;20435;-78
2022/09/19 12:22:23;;;;;;;;;;;22.20;93.90;;;;;;5053905;28;19927;-76
2022/09/19 12:24:52;;;;;;;;;;;22.90;94.30;;;;;;5050145;28;19916;-77
2022/09/19 12:27:17;;;;;;;;;;;23.00;92.30;;;;;;5049672;28;20003;-79
2022/09/19 12:30:06;;;;;;;;;;;23.00;91.50;;;;;;5057251;28;20022;-76
2022/09/19 12:32:38;;;;;;;;;;;22.80;92.50;;;;;;5067555;28;19935;-79
2022/09/19 12:35:22;;;;;;;;;;;23.00;92.20;;;;;;5044759;28;19920;-83
2022/09/19 12:37:54;;;;;;;;;;;23.10;93.30;;;;;;5055044;28;20066;-88
2022/09/19 12:40:29;;;;;;;;;;;23.10;92.00;;;;;;5056077;28;20037;-82
2022/09/19 12:43:06;;;;;;;;;;;22.60;92.50;;;;;;5054793;28;19920;-83
2022/09/19 12:45:37;;;;;;;;;;;21.60;92.40;;;;;;5054379;28;19976;-81
2022/09/19 12:48:27;;;;;;;;;;;20.70;91.90;;;;;;5037676;28;19924;-76
2022/09/19 12:50:58;;;;;;;;;;;20.80;92.70;;;;;;5040817;28;19928;-77
2022/09/19 12:53:26;;;;;;;;;;;21.20;90.60;;;;;;5052770;28;20343;-77
2022/09/19 12:55:56;;;;;;;;;;;21.20;91.50;;;;;;5052869;28;19978;-78
2022/09/19 12:58:27;;;;;;;;;;;21.30;90.90;;;;;;5053019;28;19920;-79
2022/09/19 13:01:19;;;;;;;;;;;21.40;91.10;;;;;;5052695;28;20459;-78
2022/09/19 13:03:47;;;;;;;;;;;21.00;90.70;;;;;;5030304;28;19956;-80
2022/09/19 13:06:24;;;;;;;;;;;20.80;90.80;;;;;;5040080;28;20023;-87
2022/09/19 13:09:09;;;;;;;;;;;20.50;90.00;;;;;;5048528;28;19927;-85
2022/09/19 13:11:40;;;;;;;;;;;20.30;90.20;;;;;;5049767;28;19928;-79
2022/09/19 13:14:13;;;;;;;;;;;20.10;89.90;;;;;;5046309;28;19927;-82
2022/09/19 13:23:29;;;;;;;;;;;19.90;90.10;;;;;;5057167;28;20002;-80
2022/09/19 13:25:07;;;;;;;;;;;19.40;90.40;;;;;;5040839;28;19942;-84
2022/09/19 13:27:33;;;;;;;;;;;19.20;91.50;;;;;;5064815;28;19969;-83
2022/09/19 13:30:00;;;;;;;;;;;19.00;91.80;;;;;;5046479;28;19966;-87
2022/09/19 13:32:52;;;;;;;;;;;19.10;91.60;;;;;;5015034;28;19928;-87
2022/09/19 13:35:19;;;;;;;;;;;19.00;90.00;;;;;;5055594;28;19927;-90
2022/09/19 13:37:46;;;;;;;;;;;19.10;91.60;;;;;;5044388;28;19978;-85
2022/09/19 13:40:18;;;;;;;;;;;18.80;90.70;;;;;;5062432;28;20312;-86
2022/09/19 13:42:56;;;;;;;;;;;18.80;91.60;;;;;;5056488;28;20007;-83
2022/09/19 13:45:37;;;;;;;;;;;19.00;91.40;;;;;;5041702;28;19966;-90
2022/09/19 13:48:22;;;;;;;;;;;18.90;91.30;;;;;;5064194;28;19947;-88
2022/09/19 13:50:52;;;;;;;;;;;18.70;90.80;;;;;;5065378;28;19917;-89
2022/09/19 13:53:28;;;;;;;;;;;18.50;91.50;;;;;;5068918;28;19921;-89
2022/09/19 13:55:58;;;;;;;;;;;18.50;90.70;;;;;;5066495;28;19920;-88
2022/09/19 13:58:27;;;;;;;;;;;18.60;91.20;;;;;;5048160;28;19980;-88
2022/09/19 14:01:25;;;;;;;;;;;18.60;90.10;;;;;;5042580;28;19929;-85
2022/09/19 14:03:56;;;;;;;;;;;18.60;90.30;;;;;;5005955;28;19921;-83
2022/09/19 14:06:31;;;;;;;;;;;18.50;91.00;;;;;;5043183;28;19924;-83
2022/09/19 14:09:13;;;;;;;;;;;18.20;90.80;;;;;;5043833;28;20380;-81
2022/09/19 14:11:39;;;;;;;;;;;18.00;91.50;;;;;;5044655;28;19920;-81
2022/09/19 14:14:23;;;;;;;;;;;18.00;92.10;;;;;;5064488;28;19954;-81
2022/09/19 14:17:09;;;;;;;;;;;18.00;91.80;;;;;;5060951;28;19931;-85
2022/09/19 14:20:12;;;;;;;;;;;18.10;91.80;;;;;;5037502;28;19920;-86
2022/09/19 14:22:39;;;;;;;;;;;18.00;92.20;;;;;;5044336;28;20266;-81
2022/09/19 14:25:18;;;;;;;;;;;17.90;92.80;;;;;;5053928;28;19921;-87
2022/09/19 14:27:47;;;;;;;;;;;17.80;94.10;;;;;;5031767;28;19947;-85
2022/09/19 14:30:21;;;;;;;;;;;18.10;94.20;;;;;;5053414;28;20047;-85
2022/09/19 14:33:16;;;;;;;;;;;17.90;93.10;;;;;;5032716;28;19925;-87
2022/09/19 14:35:45;;;;;;;;;;;18.00;92.90;;;;;;5043658;28;20007;-87
2022/09/19 14:38:23;;;;;;;;;;;17.90;93.80;;;;;;5044520;28;19920;-87
2022/09/19 14:41:08;;;;;;;;;;;17.70;94.00;;;;;;5056946;28;20376;-85
2022/09/19 14:43:52;;;;;;;;;;;17.60;93.60;;;;;;5038610;28;20007;-78
2022/09/19 14:46:24;;;;;;;;;;;17.50;93.60;;;;;;5047467;28;20003;-88
2022/09/19 14:48:56;;;;;;;;;;;17.60;94.30;;;;;;5037674;28;19939;-77
2022/09/19 14:51:30;;;;;;;;;;;17.80;94.70;;;;;;5046442;28;19947;-80
2022/09/19 14:54:16;;;;;;;;;;;17.80;93.30;;;;;;5042289;28;19931;-77
2022/09/19 14:57:13;;;;;;;;;;;17.90;94.50;;;;;;5053873;28;19920;-84
2022/09/19 14:59:38;;;;;;;;;;;18.00;92.70;;;;;;5034800;28;19930;-81